Terminal Aerodrome Forecast
Issued by NWS

Current Version | Previous Version | Text Only | Print | Product List | Glossary Off
Versions: 1 2 3 4 5 6 7 8 9 10 11 12 13 14 15 16 17 18 19 20 21 22 23

000
FTUS41 KRLX 290800 AAA
TAFCKB
TAF AMD
KCKB 290900Z 2909/3006 00000KT P6SM OVC045
     FM291200 00000KT 5SM BR SCT080
     FM291300 00000KT P6SM SCT090
     FM291900 28006KT P6SM SCT040=

USA.gov is the U.S. government's official web portal to all federal, state and local government web resources and services.